createdAt,value
2018-11-22T00:00:41.093Z,6.34
2018-11-22T00:01:39.599Z,6.33
2018-11-22T00:02:38.131Z,6.38
2018-11-22T00:03:36.655Z,6.34
2018-11-22T00:04:35.193Z,6.34
2018-11-22T00:05:33.726Z,6.38
2018-11-22T00:06:32.241Z,6.48
2018-11-22T00:07:30.779Z,6.51
2018-11-22T00:08:29.271Z,6.43
2018-11-22T00:09:27.800Z,6.48
2018-11-22T00:10:26.315Z,6.46
2018-11-22T00:11:24.827Z,6.48
2018-11-22T00:12:23.371Z,6.48
2018-11-22T00:13:21.910Z,6.37
2018-11-22T00:14:20.442Z,6.58
2018-11-22T00:15:19.191Z,6.59
2018-11-22T00:16:17.723Z,6.51
2018-11-22T00:17:16.436Z,6.73
2018-11-22T00:18:14.996Z,6.77
2018-11-22T00:19:13.536Z,6.73
2018-11-22T00:20:12.218Z,6.8
2018-11-22T00:21:10.901Z,6.74
2018-11-22T00:22:09.429Z,6.8
2018-11-22T00:23:07.941Z,6.87
2018-11-22T00:24:06.515Z,6.74
2018-11-22T00:25:05.012Z,6.77
2018-11-22T00:26:03.521Z,6.76
2018-11-22T00:27:02.060Z,6.77
2018-11-22T00:28:00.586Z,6.79
2018-11-22T00:28:59.151Z,6.76
2018-11-22T00:29:57.694Z,6.62
2018-11-22T00:30:56.218Z,6.59
2018-11-22T00:31:54.749Z,6.64
2018-11-22T00:32:53.258Z,6.61
2018-11-22T00:33:51.786Z,6.7
2018-11-22T00:34:50.333Z,6.64
2018-11-22T00:35:48.860Z,6.54
2018-11-22T00:36:47.383Z,6.67
2018-11-22T00:37:45.872Z,6.67
2018-11-22T00:38:44.410Z,6.62
2018-11-22T00:39:42.909Z,6.59
2018-11-22T00:40:41.448Z,6.51
2018-11-22T00:41:40.101Z,6.56
2018-11-22T00:42:38.707Z,6.67
2018-11-22T00:43:37.237Z,6.48
2018-11-22T00:44:35.789Z,6.59
2018-11-22T00:45:34.565Z,6.61
2018-11-22T00:46:33.159Z,6.52
2018-11-22T00:47:31.699Z,6.58
2018-11-22T00:48:30.272Z,6.49
2018-11-22T00:49:28.905Z,6.55
2018-11-22T00:50:27.466Z,6.4
2018-11-22T00:51:26.000Z,6.48
2018-11-22T00:52:24.542Z,6.43
2018-11-22T00:53:23.025Z,6.38
2018-11-22T00:54:21.541Z,6.44
2018-11-22T00:55:20.100Z,6.52
2018-11-22T00:56:18.627Z,6.48
2018-11-22T00:57:17.141Z,6.51
2018-11-22T00:58:15.681Z,6.59
2018-11-22T01:00:55.737Z,6.62
2018-11-22T01:01:54.344Z,6.71
2018-11-22T01:02:53.041Z,6.71
2018-11-22T01:03:51.568Z,6.67
2018-11-22T01:04:50.213Z,6.74
2018-11-22T01:05:48.809Z,6.76
2018-11-22T01:06:47.433Z,6.61
2018-11-22T01:07:46.022Z,6.46
2018-11-22T01:08:45.487Z,6.61
2018-11-22T01:09:44.089Z,6.73
2018-11-22T01:10:42.628Z,6.58
2018-11-22T01:11:41.152Z,6.59
2018-11-22T01:12:39.683Z,6.58
2018-11-22T01:13:38.264Z,6.52
2018-11-22T01:14:36.785Z,6.49
2018-11-22T01:15:35.344Z,6.58
2018-11-22T01:16:33.894Z,6.54
2018-11-22T01:17:32.608Z,6.44
2018-11-22T01:18:31.132Z,6.43
2018-11-22T01:19:29.641Z,6.38
2018-11-22T01:20:28.249Z,6.37
2018-11-22T01:21:26.836Z,6.33
2018-11-22T01:22:25.362Z,6.33
2018-11-22T01:23:23.857Z,6.3
2018-11-22T01:24:22.510Z,6.34
2018-11-22T01:25:21.042Z,6.34
2018-11-22T01:26:19.548Z,6.34
2018-11-22T01:27:18.157Z,6.36
2018-11-22T01:28:16.729Z,6.33
2018-11-22T01:29:15.253Z,6.41
2018-11-22T01:30:13.809Z,6.27
2018-11-22T01:31:12.385Z,6.28
2018-11-22T01:32:10.920Z,6.33
2018-11-22T01:33:09.449Z,6.19
2018-11-22T01:34:08.010Z,6.19
2018-11-22T01:35:06.596Z,6.15
2018-11-22T01:36:05.085Z,6.22
2018-11-22T01:37:03.613Z,6.33
2018-11-22T01:38:02.238Z,6.17
2018-11-22T01:39:00.755Z,6.11
2018-11-22T01:39:59.271Z,6.19
2018-11-22T01:40:57.797Z,6.27
2018-11-22T01:41:56.332Z,6.28
2018-11-22T01:42:54.875Z,6.12
2018-11-22T01:43:53.394Z,6.18
2018-11-22T01:44:51.881Z,6.21
2018-11-22T01:45:50.417Z,6.14
2018-11-22T01:46:48.961Z,6.18
2018-11-22T01:47:47.514Z,6.22
2018-11-22T01:48:46.036Z,6.14
2018-11-22T01:49:44.808Z,6.12
2018-11-22T01:50:43.336Z,6.08
2018-11-22T01:51:41.877Z,6.14
2018-11-22T01:52:40.655Z,6.03
2018-11-22T01:54:41.251Z,6.03
2018-11-22T01:55:39.741Z,5.97
2018-11-22T01:56:38.379Z,6.03
2018-11-22T01:57:36.939Z,6
2018-11-22T02:00:17.276Z,6.01
2018-11-22T02:01:15.760Z,5.93
2018-11-22T02:02:14.401Z,6.08
2018-11-22T02:03:12.965Z,6.19
2018-11-22T02:04:11.468Z,6.17
2018-11-22T02:05:09.995Z,6.25
2018-11-22T02:06:08.488Z,6.33
2018-11-22T02:07:07.064Z,6.21
2018-11-22T02:08:05.638Z,6.33
2018-11-22T02:09:04.321Z,6.36
2018-11-22T02:10:02.967Z,6.31
2018-11-22T02:11:01.484Z,6.21
2018-11-22T02:12:00.021Z,6.27
2018-11-22T02:12:58.845Z,6.18
2018-11-22T02:13:57.354Z,6.27
2018-11-22T02:14:56.001Z,6.21
2018-11-22T02:15:54.530Z,6.12
2018-11-22T02:16:53.087Z,6.12
2018-11-22T02:28:14.868Z,6.25
2018-11-22T02:29:13.387Z,6.3
2018-11-22T02:30:11.919Z,6.18
2018-11-22T02:31:10.475Z,6.27
2018-11-22T02:33:50.661Z,6.15
2018-11-22T02:34:49.176Z,6.17
2018-11-22T02:35:47.699Z,6.22
2018-11-22T02:36:46.295Z,6.17
2018-11-22T02:39:02.343Z,6.31
2018-11-22T02:40:01.786Z,6.19
2018-11-22T02:40:59.514Z,6.14
2018-11-22T02:41:58.009Z,6.11
2018-11-22T02:43:56.101Z,6.34
2018-11-22T02:44:54.656Z,6.49
2018-11-22T02:47:35.058Z,6.25
2018-11-22T02:48:33.664Z,6.27
2018-11-22T02:49:32.267Z,6.15
2018-11-22T02:50:30.779Z,6.18
2018-11-22T02:51:29.316Z,6.3
2018-11-22T02:52:27.929Z,6.27
2018-11-22T02:53:26.610Z,6.31
2018-11-22T02:56:06.703Z,6.37
2018-11-22T02:57:05.199Z,6.22
2018-11-22T02:58:03.742Z,6.34
2018-11-22T02:59:02.250Z,6.33
2018-11-22T03:00:00.791Z,6.19
2018-11-22T03:00:59.301Z,6.43
2018-11-22T03:01:57.926Z,6.36
2018-11-22T03:02:56.487Z,6.28
2018-11-22T03:03:55.022Z,6.34
2018-11-22T03:04:53.542Z,6.34
2018-11-22T03:05:52.203Z,6.36
2018-11-22T03:06:50.862Z,6.37
2018-11-22T03:07:49.386Z,6.41
2018-11-22T03:08:47.965Z,6.48
2018-11-22T03:09:46.573Z,6.59
2018-11-22T03:10:45.080Z,6.67
2018-11-22T03:11:43.595Z,6.54
2018-11-22T03:12:42.253Z,6.67
2018-11-22T03:15:22.393Z,6.64
2018-11-22T03:18:02.646Z,6.67
2018-11-22T03:19:01.149Z,6.76
2018-11-22T03:19:59.696Z,6.85
2018-11-22T03:20:58.584Z,6.74
2018-11-22T03:21:57.090Z,6.79
2018-11-22T03:22:55.704Z,6.8
2018-11-22T03:23:54.318Z,6.84
2018-11-22T03:24:52.876Z,6.85
2018-11-22T03:28:31.995Z,6.81
2018-11-22T03:29:30.664Z,6.76
2018-11-22T03:30:29.164Z,6.81
2018-11-22T03:31:27.670Z,6.84
2018-11-22T03:32:26.253Z,6.84
2018-11-22T03:33:24.860Z,6.81
2018-11-22T03:34:23.972Z,6.87
2018-11-22T03:35:22.619Z,6.99
2018-11-22T03:36:21.127Z,6.95
2018-11-22T03:38:02.820Z,6.87
2018-11-22T03:39:01.317Z,6.91
2018-11-22T03:39:59.850Z,6.84
2018-11-22T03:40:58.418Z,6.87
2018-11-22T03:41:56.956Z,6.95
2018-11-22T03:42:55.464Z,6.92
2018-11-22T03:43:53.967Z,6.91
2018-11-22T03:44:53.250Z,6.88
2018-11-22T03:45:51.802Z,6.88
2018-11-22T03:46:50.484Z,6.89
2018-11-22T03:47:49.038Z,6.97
2018-11-22T03:48:47.545Z,7.06
2018-11-22T03:49:50.372Z,7.07
2018-11-22T03:50:44.585Z,7.03
2018-11-22T03:51:43.249Z,7.15
2018-11-22T03:52:41.889Z,7.21
2018-11-22T03:53:40.502Z,7.1
2018-11-22T03:54:39.076Z,7.15
2018-11-22T03:55:37.607Z,7.12
2018-11-22T03:56:36.228Z,7.06
2018-11-22T03:57:34.802Z,7.1
2018-11-22T03:58:33.366Z,7.1
2018-11-22T03:59:31.977Z,7.06
2018-11-22T04:00:30.709Z,7.12
2018-11-22T04:01:29.237Z,6.98
2018-11-22T04:02:27.731Z,7.09
2018-11-22T04:03:26.310Z,7.06
2018-11-22T04:04:24.846Z,7.12
2018-11-22T04:05:23.363Z,7.12
2018-11-22T04:06:21.893Z,7.12
2018-11-22T04:07:20.413Z,7.13
2018-11-22T04:08:18.940Z,7.17
2018-11-22T04:09:17.448Z,7.25
2018-11-22T04:10:15.980Z,7.28
2018-11-22T04:11:14.513Z,7.31
2018-11-22T04:12:13.021Z,7.28
2018-11-22T04:13:11.567Z,7.27
2018-11-22T04:14:10.083Z,7.27
2018-11-22T04:15:08.606Z,7.4
2018-11-22T04:16:07.135Z,7.39
2018-11-22T04:17:05.625Z,7.37
2018-11-22T04:18:04.145Z,7.27
2018-11-22T04:19:02.682Z,7.16
2018-11-22T04:20:01.192Z,7.24
2018-11-22T04:20:59.711Z,7.3
2018-11-22T04:21:58.242Z,7.35
2018-11-22T04:22:56.743Z,7.28
2018-11-22T04:23:55.259Z,7.32
2018-11-22T04:24:53.783Z,7.3
2018-11-22T04:25:52.281Z,7.39
2018-11-22T04:26:50.802Z,7.45
2018-11-22T04:27:49.336Z,7.42
2018-11-22T04:28:47.863Z,7.45
2018-11-22T04:29:46.404Z,7.31
2018-11-22T04:30:44.933Z,7.31
2018-11-22T04:31:43.467Z,7.37
2018-11-22T04:32:41.969Z,7.35
2018-11-22T04:33:40.565Z,7.31
2018-11-22T04:34:39.098Z,7.39
2018-11-22T04:35:37.637Z,7.25
2018-11-22T04:36:36.242Z,7.27
2018-11-22T04:37:34.941Z,7.31
2018-11-22T04:38:33.459Z,7.31
2018-11-22T04:39:32.034Z,7.42
2018-11-22T04:40:30.673Z,7.42
2018-11-22T04:41:29.216Z,7.28
2018-11-22T04:42:27.852Z,7.32
2018-11-22T04:43:26.395Z,7.34
2018-11-22T04:44:25.021Z,7.27
2018-11-22T04:45:23.576Z,7.24
2018-11-22T04:46:22.100Z,7.13
2018-11-22T04:47:20.632Z,7.03
2018-11-22T04:48:19.135Z,7.05
2018-11-22T04:49:17.663Z,7.21
2018-11-22T04:50:16.190Z,7.13
2018-11-22T04:51:14.708Z,7.15
2018-11-22T04:52:13.229Z,7.05
2018-11-22T04:53:11.810Z,7.12
2018-11-22T04:54:10.635Z,7.1
2018-11-22T04:55:09.151Z,7.12
2018-11-22T04:56:07.684Z,7.21
2018-11-22T04:57:06.329Z,7.24
2018-11-22T04:58:04.968Z,7.23
2018-11-22T04:59:04.190Z,7.17
2018-11-22T05:00:02.410Z,7.13
2018-11-22T05:01:00.978Z,7.06
2018-11-22T05:02:00.457Z,7.06
2018-11-22T05:02:58.023Z,7.09
2018-11-22T05:03:56.660Z,7.06
2018-11-22T05:04:55.191Z,6.92
2018-11-22T05:05:53.771Z,6.95
2018-11-22T05:06:52.356Z,7.09
2018-11-22T05:07:50.901Z,7.12
2018-11-22T05:08:49.410Z,7.1
2018-11-22T05:09:48.073Z,7.07
2018-11-22T05:10:46.745Z,7.2
2018-11-22T05:11:45.286Z,7.13
2018-11-22T05:12:43.814Z,7.17
2018-11-22T05:13:42.397Z,7.2
2018-11-22T05:14:41.157Z,7.2
2018-11-22T05:15:39.677Z,7.28
2018-11-22T05:16:38.190Z,7.23
2018-11-22T05:17:36.717Z,7.31
2018-11-22T05:18:35.276Z,7.15
2018-11-22T05:19:33.791Z,7.2
2018-11-22T05:20:32.279Z,7.23
2018-11-22T05:21:30.806Z,7.21
2018-11-22T05:22:29.368Z,7.28
2018-11-22T05:23:27.866Z,7.31
2018-11-22T05:24:26.524Z,7.32
2018-11-22T05:25:25.031Z,7.31
2018-11-22T05:26:23.542Z,7.3
2018-11-22T05:27:22.195Z,7.32
2018-11-22T05:28:20.764Z,7.32
2018-11-22T05:29:19.290Z,7.13
2018-11-22T05:30:17.833Z,7.25
2018-11-22T05:31:16.557Z,7.2
2018-11-22T05:32:15.072Z,7.32
2018-11-22T05:33:13.609Z,7.27
2018-11-22T05:34:12.231Z,7.27
2018-11-22T05:35:10.862Z,7.27
2018-11-22T05:36:09.356Z,7.28
2018-11-22T05:37:07.885Z,7.1
2018-11-22T05:38:06.493Z,7.17
2018-11-22T05:39:05.010Z,7.13
2018-11-22T05:40:03.520Z,7.2
2018-11-22T05:41:02.059Z,7.02
2018-11-22T05:42:00.576Z,7.12
2018-11-22T05:42:59.102Z,7.06
2018-11-22T05:43:57.617Z,7.23
2018-11-22T05:44:56.143Z,7.17
2018-11-22T05:45:54.676Z,7.07
2018-11-22T05:46:53.182Z,7.16
2018-11-22T05:47:51.723Z,7.23
2018-11-22T05:48:50.221Z,7.31
2018-11-22T05:49:48.766Z,7.32
2018-11-22T05:50:47.271Z,7.3
2018-11-22T05:51:45.823Z,7.3
2018-11-22T05:53:30.286Z,7.2
2018-11-22T05:54:28.818Z,7.27
2018-11-22T05:55:27.361Z,7.21
2018-11-22T05:56:26.056Z,7.17
2018-11-22T05:58:42.112Z,7.12
2018-11-22T05:59:40.672Z,7.27
2018-11-22T06:00:39.224Z,7.28
2018-11-22T06:02:22.761Z,7.3
2018-11-22T06:03:21.333Z,7.34
2018-11-22T06:04:19.904Z,7.2
2018-11-22T06:05:18.512Z,7.25
2018-11-22T06:06:17.165Z,7.12
2018-11-22T06:07:15.693Z,7.13
2018-11-22T06:08:14.233Z,7.09
2018-11-22T06:09:12.875Z,7.13
2018-11-22T06:10:11.403Z,7.23
2018-11-22T06:11:09.913Z,7.16
2018-11-22T06:12:08.597Z,7.12
2018-11-22T06:13:07.122Z,7.1
2018-11-22T06:14:05.656Z,7.17
2018-11-22T06:17:44.289Z,7.15
2018-11-22T06:18:42.828Z,7.13
2018-11-22T06:19:41.395Z,7.21
2018-11-22T06:20:39.927Z,7.12
2018-11-22T06:21:38.438Z,7.09
2018-11-22T06:22:36.953Z,7.07
2018-11-22T06:23:35.473Z,6.98
2018-11-22T06:24:34.018Z,6.98
2018-11-22T06:25:32.676Z,7.12
2018-11-22T06:26:31.379Z,6.95
2018-11-22T06:27:29.784Z,6.91
2018-11-22T06:28:28.704Z,6.85
2018-11-22T06:29:27.239Z,6.84
2018-11-22T06:30:25.911Z,6.81
2018-11-22T06:31:24.487Z,6.76
2018-11-22T06:32:23.040Z,6.98
2018-11-22T06:33:21.564Z,6.99
2018-11-22T06:34:20.084Z,6.91
2018-11-22T06:35:18.623Z,6.95
2018-11-22T06:36:17.152Z,6.8
2018-11-22T06:37:15.666Z,6.87
2018-11-22T06:38:14.189Z,6.77
2018-11-22T06:39:12.702Z,6.91
2018-11-22T06:40:11.315Z,6.88
2018-11-22T06:41:09.918Z,6.81
2018-11-22T06:42:08.603Z,6.87
2018-11-22T06:43:07.252Z,6.84
2018-11-22T06:44:05.756Z,6.84
2018-11-22T06:45:04.596Z,6.81
2018-11-22T06:46:03.146Z,6.88
2018-11-22T06:47:01.650Z,6.97
2018-11-22T06:48:00.205Z,6.88
2018-11-22T06:48:58.880Z,6.92
2018-11-22T06:50:42.372Z,6.8
2018-11-22T06:51:40.892Z,6.81
2018-11-22T06:52:39.426Z,6.89
2018-11-22T06:53:38.081Z,6.95
2018-11-22T06:54:36.627Z,7.03
2018-11-22T06:55:35.133Z,6.99
2018-11-22T06:56:33.663Z,7.02
2018-11-22T06:57:32.352Z,6.91
2018-11-22T06:58:30.990Z,6.77
2018-11-22T06:59:29.577Z,6.79
2018-11-22T07:00:28.172Z,6.66
2018-11-22T07:01:26.791Z,6.46
2018-11-22T07:02:25.316Z,6.62
2018-11-22T07:03:24.224Z,6.58
2018-11-22T07:04:22.754Z,6.74
2018-11-22T07:05:21.301Z,6.74
2018-11-22T07:06:19.813Z,6.77
2018-11-22T07:07:18.383Z,6.8
2018-11-22T07:08:16.969Z,6.64
2018-11-22T07:09:15.517Z,6.71
2018-11-22T07:10:14.065Z,6.77
2018-11-22T07:11:12.703Z,6.92
2018-11-22T07:12:11.218Z,6.99
2018-11-22T07:13:09.844Z,7.02
2018-11-22T07:14:08.565Z,6.92
2018-11-22T07:15:07.140Z,7.02
2018-11-22T07:16:05.669Z,7.06
2018-11-22T07:17:04.188Z,7.07
2018-11-22T07:18:02.729Z,7.02
2018-11-22T07:19:01.257Z,7.16
2018-11-22T07:19:59.800Z,7.2
2018-11-22T07:20:58.365Z,7.15
2018-11-22T07:21:56.910Z,7.15
2018-11-22T07:22:56.189Z,7.2
2018-11-22T07:23:53.961Z,7.1
2018-11-22T07:24:52.685Z,7.23
2018-11-22T07:25:51.299Z,7.24
2018-11-22T07:26:49.816Z,7.31
2018-11-22T07:27:48.577Z,7.27
2018-11-22T07:28:47.113Z,7.28
2018-11-22T07:29:45.627Z,7.3
2018-11-22T07:30:44.237Z,7.16
2018-11-22T07:31:42.846Z,7.05
2018-11-22T07:32:41.420Z,7.1
2018-11-22T07:33:39.953Z,7.13
2018-11-22T07:34:38.510Z,7.24
2018-11-22T07:35:37.044Z,7.17
2018-11-22T07:36:35.699Z,7.24
2018-11-22T07:37:34.298Z,7.09
2018-11-22T07:38:32.968Z,7.1
2018-11-22T07:39:31.583Z,7.31
2018-11-22T07:40:30.181Z,7.32
2018-11-22T07:41:28.740Z,7.23
2018-11-22T07:42:27.264Z,7.21
2018-11-22T07:43:25.803Z,7.21
2018-11-22T07:44:24.444Z,7.3
2018-11-22T07:45:23.089Z,7.37
2018-11-22T07:46:21.611Z,7.31
2018-11-22T07:47:20.132Z,7.3
2018-11-22T07:48:18.693Z,7.25
2018-11-22T07:49:17.219Z,7.32
2018-11-22T07:50:15.759Z,7.25
2018-11-22T07:51:14.255Z,7.17
2018-11-22T07:52:12.767Z,7.21
2018-11-22T07:53:11.311Z,7.17
2018-11-22T07:54:09.828Z,7.2
2018-11-22T07:55:08.400Z,7.2
2018-11-22T07:56:06.926Z,7.16
2018-11-22T07:57:05.452Z,7.12
2018-11-22T07:58:03.987Z,7.1
2018-11-22T07:59:02.633Z,7.15
2018-11-22T08:00:01.138Z,7.17
2018-11-22T08:00:59.626Z,7.23
2018-11-22T08:02:43.102Z,7.21
2018-11-22T08:03:41.643Z,7.16
2018-11-22T08:04:40.396Z,7.05
2018-11-22T08:05:39.072Z,7.06
2018-11-22T08:06:37.576Z,7.2
2018-11-22T08:07:36.141Z,7.24
2018-11-22T08:08:34.716Z,7.2
2018-11-22T08:09:33.237Z,7.28
2018-11-22T08:10:31.772Z,7.31
2018-11-22T08:11:30.403Z,7.37
2018-11-22T08:12:28.992Z,7.42
2018-11-22T08:13:27.485Z,7.43
2018-11-22T08:14:26.008Z,7.39
2018-11-22T08:15:24.543Z,7.5
2018-11-22T08:16:23.069Z,7.42
2018-11-22T08:17:21.610Z,7.45
2018-11-22T08:18:20.154Z,7.46
2018-11-22T08:19:19.857Z,7.35
2018-11-22T08:20:17.208Z,7.53
2018-11-22T08:21:15.758Z,7.37
2018-11-22T08:22:14.369Z,7.55
2018-11-22T08:23:12.904Z,7.57
2018-11-22T08:24:11.412Z,7.68
2018-11-22T08:25:10.072Z,7.68
2018-11-22T08:27:18.953Z,7.8
2018-11-22T08:28:17.472Z,7.77
2018-11-22T08:29:16.098Z,7.82
2018-11-22T08:30:14.664Z,7.8
2018-11-22T08:31:13.266Z,7.79
2018-11-22T08:32:11.773Z,7.8
2018-11-22T08:33:10.333Z,7.77
2018-11-22T08:34:08.948Z,7.79
2018-11-22T08:35:07.508Z,7.79
2018-11-22T08:36:06.738Z,7.87
2018-11-22T08:37:04.635Z,7.89
2018-11-22T08:38:03.172Z,7.86
2018-11-22T08:39:01.698Z,7.89
2018-11-22T08:40:00.215Z,8.02
2018-11-22T08:40:58.799Z,8.02
2018-11-22T08:41:57.318Z,7.75
2018-11-22T08:42:55.824Z,7.69
2018-11-22T08:43:54.341Z,7.77
2018-11-22T08:44:52.855Z,7.82
2018-11-22T08:45:51.395Z,7.9
2018-11-22T08:46:50.108Z,7.69
2018-11-22T08:47:48.832Z,7.74
2018-11-22T08:48:47.352Z,7.74
2018-11-22T08:49:45.876Z,7.77
2018-11-22T08:50:44.666Z,7.72
2018-11-22T08:51:43.213Z,7.71
2018-11-22T08:52:41.756Z,7.8
2018-11-22T08:53:40.404Z,7.74
2018-11-22T08:54:38.925Z,7.8
2018-11-22T08:55:37.448Z,7.67
2018-11-22T08:56:36.052Z,7.67
2018-11-22T08:57:34.625Z,7.68
2018-11-22T08:58:33.152Z,7.83
2018-11-22T08:59:31.673Z,7.71
2018-11-22T09:00:30.348Z,7.72
2018-11-22T09:01:29.017Z,7.74
2018-11-22T09:02:27.604Z,7.85
2018-11-22T09:03:26.295Z,7.9
2018-11-22T09:04:24.949Z,7.87
2018-11-22T09:06:09.385Z,7.52
2018-11-22T09:07:07.912Z,7.58
2018-11-22T09:08:06.493Z,7.71
2018-11-22T09:09:05.018Z,7.74
2018-11-22T09:10:03.555Z,7.75
2018-11-22T09:11:02.047Z,7.58
2018-11-22T09:12:00.559Z,7.52
2018-11-22T09:12:59.121Z,7.55
2018-11-22T09:13:57.687Z,7.63
2018-11-22T09:14:56.195Z,7.61
2018-11-22T09:15:54.705Z,7.74
2018-11-22T09:16:53.241Z,7.71
2018-11-22T09:17:51.781Z,7.75
2018-11-22T09:18:50.446Z,7.79
2018-11-22T09:19:49.030Z,7.75
2018-11-22T09:20:47.531Z,7.74
2018-11-22T09:21:46.101Z,7.71
2018-11-22T09:22:44.930Z,7.74
2018-11-22T09:23:43.463Z,7.69
2018-11-22T09:24:41.979Z,7.69
2018-11-22T09:25:40.643Z,7.61
2018-11-22T09:26:39.154Z,7.52
2018-11-22T09:27:37.688Z,7.68
2018-11-22T09:28:36.625Z,7.64
2018-11-22T09:29:39.461Z,7.63
2018-11-22T09:30:33.739Z,7.67
2018-11-22T09:31:32.287Z,7.61
2018-11-22T09:32:30.876Z,7.64
2018-11-22T09:33:29.406Z,7.67
2018-11-22T09:34:27.948Z,7.74
2018-11-22T09:35:26.797Z,7.72
2018-11-22T09:36:25.272Z,7.92
2018-11-22T09:37:23.848Z,7.86
2018-11-22T09:38:22.405Z,7.83
2018-11-22T09:39:20.988Z,7.89
2018-11-22T09:40:19.510Z,7.97
2018-11-22T09:41:18.052Z,7.97
2018-11-22T09:42:16.635Z,7.89
2018-11-22T09:43:15.108Z,7.92
2018-11-22T09:44:13.628Z,7.87
2018-11-22T09:45:12.148Z,7.9
2018-11-22T09:46:10.679Z,8.02
2018-11-22T09:47:09.215Z,7.89
2018-11-22T09:48:07.722Z,7.86
2018-11-22T09:49:06.239Z,7.79
2018-11-22T09:50:04.744Z,7.92
2018-11-22T09:51:03.292Z,7.98
2018-11-22T09:52:01.811Z,7.89
2018-11-22T09:53:00.348Z,7.87
2018-11-22T09:53:58.868Z,8.07
2018-11-22T09:54:57.410Z,8.11
2018-11-22T09:55:55.918Z,8.05
2018-11-22T09:56:54.432Z,8.11
2018-11-22T09:57:52.944Z,8.15
2018-11-22T09:58:51.480Z,8.07
2018-11-22T09:59:49.990Z,8.19
2018-11-22T10:00:48.519Z,8.26
2018-11-22T10:01:47.006Z,8.23
2018-11-22T10:02:45.543Z,8.11
2018-11-22T10:03:44.071Z,8.19
2018-11-22T10:04:42.608Z,8.16
2018-11-22T10:05:41.112Z,8.15
2018-11-22T10:06:39.618Z,8.11
2018-11-22T10:07:38.156Z,8.05
2018-11-22T10:08:37.090Z,8.12
2018-11-22T10:09:35.479Z,8.16
2018-11-22T10:10:34.057Z,8.12
2018-11-22T10:11:32.816Z,8.19
2018-11-22T10:13:49.595Z,8.28
2018-11-22T10:14:48.110Z,8.29
2018-11-22T10:15:46.683Z,8.11
2018-11-22T10:16:45.183Z,8.18
2018-11-22T10:17:43.679Z,8.2
2018-11-22T10:18:42.294Z,8.07
2018-11-22T10:19:40.764Z,8.2
2018-11-22T10:20:39.297Z,8.16
2018-11-22T10:21:37.807Z,8.16
2018-11-22T10:22:36.354Z,8.26
2018-11-22T10:23:34.909Z,8.23
2018-11-22T10:24:33.386Z,8.23
2018-11-22T10:25:31.909Z,8.25
2018-11-22T10:26:30.411Z,8.25
2018-11-22T10:27:28.916Z,8.33
2018-11-22T10:28:27.412Z,8.33
2018-11-22T10:29:26.052Z,8.4
2018-11-22T10:30:24.674Z,8.41
2018-11-22T10:31:23.046Z,8.41
2018-11-22T10:32:21.517Z,8.44
2018-11-22T10:33:20.027Z,8.48
2018-11-22T10:34:18.568Z,8.44
2018-11-22T10:35:17.194Z,8.38
2018-11-22T10:36:15.610Z,8.38
2018-11-22T10:37:14.129Z,8.37
2018-11-22T10:38:12.681Z,8.41
2018-11-22T10:39:11.226Z,8.41
2018-11-22T10:40:54.687Z,8.44
2018-11-22T10:41:53.203Z,8.37
2018-11-22T10:42:51.715Z,8.12
2018-11-22T10:43:50.337Z,8.25
2018-11-22T10:44:48.980Z,8.29
2018-11-22T10:45:47.488Z,8.28
2018-11-22T10:46:46.292Z,8.3
2018-11-22T10:49:21.199Z,8.4
2018-11-22T10:50:19.720Z,8.38
2018-11-22T10:51:18.427Z,8.36
2018-11-22T10:52:17.079Z,8.37
2018-11-22T10:53:15.599Z,8.47
2018-11-22T10:54:14.130Z,8.48
2018-11-22T10:55:12.668Z,8.44
2018-11-22T10:57:20.674Z,8.41
2018-11-22T10:58:19.199Z,8.52
2018-11-22T10:59:17.727Z,8.47
2018-11-22T11:00:16.370Z,8.5
2018-11-22T11:01:14.930Z,8.58
2018-11-22T11:02:13.480Z,8.56
2018-11-22T11:03:11.987Z,8.59
2018-11-22T11:04:10.878Z,8.63
2018-11-22T11:05:09.376Z,8.66
2018-11-22T11:06:07.886Z,8.71
2018-11-22T11:07:06.457Z,8.7
2018-11-22T11:08:05.032Z,8.62
2018-11-22T11:09:03.552Z,8.68
2018-11-22T11:10:02.084Z,8.73
2018-11-22T11:11:00.738Z,8.66
2018-11-22T11:11:59.283Z,8.68
2018-11-22T11:12:57.832Z,8.76
2018-11-22T11:13:56.363Z,8.76
2018-11-22T11:14:54.874Z,8.68
2018-11-22T11:15:53.363Z,8.63
2018-11-22T11:16:51.893Z,8.73
2018-11-22T11:17:50.424Z,8.63
2018-11-22T11:18:48.935Z,8.73
2018-11-22T11:19:47.489Z,8.66
2018-11-22T11:20:46.001Z,8.76
2018-11-22T11:21:44.528Z,8.81
2018-11-22T11:22:43.066Z,8.89
2018-11-22T11:23:41.590Z,8.86
2018-11-22T11:24:40.503Z,8.94
2018-11-22T11:25:38.626Z,9.01
2018-11-22T11:26:37.157Z,8.96
2018-11-22T11:27:35.688Z,9.01
2018-11-22T11:28:34.207Z,9.02
2018-11-22T11:29:32.872Z,9.02
2018-11-22T11:30:31.407Z,9.14
2018-11-22T11:31:29.951Z,9.18
2018-11-22T11:32:28.537Z,9.17
2018-11-22T11:33:27.193Z,9.24
2018-11-22T11:34:25.705Z,9.11
2018-11-22T11:35:24.441Z,9.17
2018-11-22T11:36:23.156Z,9.18
2018-11-22T11:37:21.663Z,9.31
2018-11-22T11:38:20.201Z,9.31
2018-11-22T11:39:18.733Z,9.24
2018-11-22T11:40:17.876Z,9.26
2018-11-22T11:41:16.458Z,9.23
2018-11-22T11:42:14.978Z,9.15
2018-11-22T11:43:13.501Z,9.28
2018-11-22T11:44:12.080Z,9.18
2018-11-22T11:45:10.684Z,9.38
2018-11-22T11:46:09.216Z,9.35
2018-11-22T11:47:07.732Z,9.35
2018-11-22T11:48:06.341Z,9.35
2018-11-22T11:49:04.918Z,9.39
2018-11-22T11:50:03.461Z,9.5
2018-11-22T11:51:01.985Z,9.42
2018-11-22T11:52:00.526Z,9.5
2018-11-22T11:52:59.050Z,9.42
2018-11-22T11:53:57.591Z,9.5
2018-11-22T11:54:56.112Z,9.54
2018-11-22T11:55:54.652Z,9.56
2018-11-22T11:56:53.168Z,9.57
2018-11-22T11:57:51.707Z,9.53
2018-11-22T11:58:50.392Z,9.48
2018-11-22T11:59:49.061Z,9.48
2018-11-22T12:00:47.583Z,9.46
2018-11-22T12:01:46.387Z,9.64
2018-11-22T12:02:45.092Z,9.68
2018-11-22T12:03:43.625Z,9.65
2018-11-22T12:04:42.156Z,9.65
2018-11-22T12:05:40.709Z,9.75
2018-11-22T12:06:39.368Z,9.78
2018-11-22T12:07:37.879Z,9.71
2018-11-22T12:08:36.477Z,9.79
2018-11-22T12:09:35.000Z,9.9
2018-11-22T12:10:33.511Z,9.94
2018-11-22T12:11:32.038Z,9.93
2018-11-22T12:12:30.695Z,9.79
2018-11-22T12:13:29.396Z,9.72
2018-11-22T12:14:27.911Z,9.75
2018-11-22T12:15:26.491Z,9.68
2018-11-22T12:16:25.109Z,9.75
2018-11-22T12:17:23.638Z,9.69
2018-11-22T12:18:22.295Z,9.69
2018-11-22T12:19:20.861Z,9.6
2018-11-22T12:20:19.365Z,9.71
2018-11-22T12:21:17.890Z,9.6
2018-11-22T12:22:16.490Z,9.53
2018-11-22T12:23:14.997Z,9.51
2018-11-22T12:24:13.560Z,9.47
2018-11-22T12:25:12.103Z,9.54
2018-11-22T12:26:10.618Z,9.51
2018-11-22T12:27:09.143Z,9.36
2018-11-22T12:28:07.702Z,9.38
2018-11-22T12:29:06.233Z,9.36
2018-11-22T12:30:04.773Z,9.33
2018-11-22T12:31:06.281Z,9.43
2018-11-22T12:32:01.825Z,9.43
2018-11-22T12:33:00.406Z,9.43
2018-11-22T12:33:59.083Z,9.47
2018-11-22T12:34:57.609Z,9.5
2018-11-22T12:35:56.125Z,9.5
2018-11-22T12:36:54.728Z,9.5
2018-11-22T12:37:53.287Z,9.48
2018-11-22T12:38:51.813Z,9.53
2018-11-22T12:39:50.573Z,9.57
2018-11-22T12:40:49.250Z,9.64
2018-11-22T12:41:47.795Z,9.61
2018-11-22T12:42:46.308Z,9.53
2018-11-22T12:43:44.839Z,9.38
2018-11-22T12:44:43.373Z,9.47
2018-11-22T12:45:41.897Z,9.43
2018-11-22T12:46:40.504Z,9.56
2018-11-22T12:47:39.056Z,9.47
2018-11-22T12:48:37.575Z,9.47
2018-11-22T12:49:36.222Z,9.5
2018-11-22T12:50:34.820Z,9.48
2018-11-22T12:51:33.362Z,9.39
2018-11-22T12:52:31.860Z,9.5
2018-11-22T12:53:30.449Z,9.51
2018-11-22T12:54:29.108Z,9.54
2018-11-22T12:55:27.721Z,9.43
2018-11-22T12:56:26.282Z,9.36
2018-11-22T12:57:24.915Z,9.4
2018-11-22T12:58:23.427Z,9.38
2018-11-22T12:59:21.972Z,9.56
2018-11-22T13:00:20.616Z,9.51
2018-11-22T13:01:19.191Z,9.5
2018-11-22T13:02:18.262Z,9.57
2018-11-22T13:03:16.231Z,9.5
2018-11-22T13:04:14.755Z,9.42
2018-11-22T13:05:13.287Z,9.51
2018-11-22T13:06:11.845Z,9.47
2018-11-22T13:07:10.351Z,9.51
2018-11-22T13:08:08.883Z,9.51
2018-11-22T13:09:07.388Z,9.53
2018-11-22T13:10:05.915Z,9.5
2018-11-22T13:11:04.454Z,9.46
2018-11-22T13:12:02.966Z,9.35
2018-11-22T13:13:01.484Z,9.43
2018-11-22T13:14:00.021Z,9.53
2018-11-22T13:14:58.549Z,9.53
2018-11-22T13:15:57.067Z,9.54
2018-11-22T13:16:55.776Z,9.47
2018-11-22T13:17:54.328Z,9.6
2018-11-22T13:18:53.288Z,9.6
2018-11-22T13:19:51.613Z,9.71
2018-11-22T13:20:50.275Z,9.66
2018-11-22T13:21:48.919Z,9.71
2018-11-22T13:22:47.456Z,9.66
2018-11-22T13:23:46.039Z,9.68
2018-11-22T13:24:44.602Z,9.64
2018-11-22T13:26:53.322Z,9.54
2018-11-22T13:27:51.855Z,9.51
2018-11-22T13:28:50.413Z,9.51
2018-11-22T13:29:48.961Z,9.53
2018-11-22T13:30:47.465Z,9.57
2018-11-22T13:31:46.018Z,9.51
2018-11-22T13:32:44.827Z,9.61
2018-11-22T13:33:43.047Z,9.6
2018-11-22T13:34:41.597Z,9.54
2018-11-22T13:35:40.192Z,9.61
2018-11-22T13:36:38.815Z,9.53
2018-11-22T13:37:37.353Z,9.57
2018-11-22T13:38:35.857Z,9.42
2018-11-22T13:39:34.552Z,9.51
2018-11-22T13:40:33.138Z,9.48
2018-11-22T13:41:31.672Z,9.58
2018-11-22T13:42:30.319Z,9.57
2018-11-22T13:43:28.975Z,9.5
2018-11-22T13:44:27.483Z,9.5
2018-11-22T13:45:26.034Z,9.39
2018-11-22T13:46:24.562Z,9.51